Austin Bergstrom International Airport
KAUS : now visible

Airfield :











YOU CAN JOIN US ON...

 
LOGIN :

Register | Disclaimer

   EN    FR    IT 

 









Legend :    VFR   Marginal VFR   IFR   Intensive IFR   Very Intensive IFR
Visi :
Ceiling :
>= 8 km
>= 3000ft
5 to 8 km
1000 to 3000 ft
1500m to 5 km
500 to 1000 ft
800 to 1500m
200 to 500 ft
< 800m
< 200 ft
Symbols :   Thunderstorms  Fog  Heavy snow  Heavy precipitations  Wind > 20 kt







- Airport Elevation : 542 ft
- IATA code : AUS


KAUS - Austin Bergstrom International

CURRENT METAR :
  • 201553Z 20012KT 10SM FEW029 SCT036 32/23 A2998 RMK AO2 SLP140 T03170228 $

EXPIRED METARs :
  • 201453Z 17011KT 10SM FEW015 SCT023 BKN042 30/24 A2998 RMK AO2 SLP142 T03000244 52016 $
  • 201407Z 15009KT 10SM SCT015 BKN022 28/24 A2998 RMK AO2 T02780244 $
  • 201353Z 18008KT 10SM FEW010 SCT017 SCT022 28/24 A2997 RMK AO2 SLP137 T02780244 $

TAF KAUS
Valid from the 20 at 14:00 until the 21 at 18:00 UTC


201400Z 2014/2118 17008KT P6SM SCT020
FM201700 16012G22KT P6SM SCT040
FM210500 15008KT P6SM BKN015
FM211600 16012KT P6SM SCT040
No reported NOTAMs for that airfield.



MET'MAP, your aeronautical weather chart ! - Copyright ORBIFLY December 2007 - Disclaimer

ORBIFLY MET'MAP TEAM :

Programming & Development : Alexandra Zaïnal
Concept & Development : Baudouin d'Aumeries
Co-Development & Prog : Marc-Olivier Méhu
Technical & hardware support : Manuel Goepfert

Contact : metmap@orbifly.com




SOURCES & CREDITS :

   NOAA       Earth
Advisory